createdAt,value
2023-03-05T00:00:54.110Z,5.30
2023-03-05T00:06:00.713Z,5.20
2023-03-05T00:11:23.442Z,5.20
2023-03-05T00:16:41.615Z,5.20
2023-03-05T00:21:46.245Z,5.10
2023-03-05T00:27:28.752Z,5.20
2023-03-05T00:32:44.712Z,5.10
2023-03-05T00:38:33.466Z,5.20
2023-03-05T00:43:43.832Z,5.20
2023-03-05T00:48:52.915Z,5.20
2023-03-05T00:53:57.914Z,5.20
2023-03-05T00:59:09.339Z,5.10
2023-03-05T01:04:18.789Z,5.10
2023-03-05T01:09:29.256Z,5.20
2023-03-05T01:14:44.592Z,5.20
2023-03-05T01:20:08.271Z,5.20
2023-03-05T01:30:36.499Z,5.20
2023-03-05T01:35:43.131Z,5.20
2023-03-05T01:40:57.864Z,5.10
2023-03-05T01:46:30.344Z,5.00
2023-03-05T01:52:05.706Z,5.00
2023-03-05T01:57:21.769Z,4.90
2023-03-05T02:02:33.581Z,4.80
2023-03-05T02:07:40.275Z,4.70
2023-03-05T02:12:46.680Z,4.60
2023-03-05T02:17:53.736Z,4.50
2023-03-05T02:23:00.703Z,4.50
2023-03-05T02:28:17.335Z,4.40
2023-03-05T02:33:23.094Z,4.40
2023-03-05T02:38:28.412Z,4.30
2023-03-05T02:43:47.336Z,4.30
2023-03-05T02:48:53.918Z,4.30
2023-03-05T02:53:59.960Z,4.20
2023-03-05T02:59:02.530Z,4.20
2023-03-05T03:04:12.518Z,4.20
2023-03-05T03:09:19.880Z,4.20
2023-03-05T03:14:25.850Z,4.20
2023-03-05T03:19:44.924Z,4.20
2023-03-05T03:24:51.533Z,4.20
2023-03-05T03:30:10.886Z,4.20
2023-03-05T03:35:19.772Z,4.20
2023-03-05T03:40:28.796Z,4.20
2023-03-05T03:45:36.263Z,4.10
2023-03-05T03:50:44.721Z,4.10
2023-03-05T03:55:58.249Z,4.20
2023-03-05T04:01:11.120Z,4.20
2023-03-05T04:06:22.227Z,4.20
2023-03-05T04:11:34.872Z,4.20
2023-03-05T04:16:41.334Z,4.10
2023-03-05T04:21:47.725Z,4.10
2023-03-05T04:26:54.318Z,4.10
2023-03-05T04:32:02.279Z,4.20
2023-03-05T04:37:27.017Z,4.10
2023-03-05T04:42:30.455Z,4.20
2023-03-05T04:47:41.548Z,4.10
2023-03-05T04:52:50.272Z,4.10
2023-03-05T04:57:59.308Z,4.20
2023-03-05T05:03:04.299Z,4.20
2023-03-05T05:08:14.239Z,4.20
2023-03-05T05:18:47.792Z,4.20
2023-03-05T05:23:59.379Z,4.20
2023-03-05T05:29:05.186Z,4.20
2023-03-05T05:34:07.601Z,4.10
2023-03-05T05:49:58.822Z,4.10
2023-03-05T05:55:17.999Z,4.10
2023-03-05T06:00:43.599Z,4.10
2023-03-05T06:06:10.575Z,4.10
2023-03-05T06:17:29.937Z,4.00
2023-03-05T06:22:54.848Z,4.00
2023-03-05T06:27:56.881Z,4.00
2023-03-05T06:32:59.562Z,4.00
2023-03-05T06:38:01.452Z,3.90
2023-03-05T06:43:03.320Z,3.90
2023-03-05T06:48:05.318Z,3.80
2023-03-05T06:53:07.684Z,3.80
2023-03-05T06:58:09.586Z,3.80
2023-03-05T07:03:11.798Z,3.80
2023-03-05T07:08:13.732Z,3.80
2023-03-05T07:13:15.567Z,3.80
2023-03-05T07:18:17.398Z,3.90
2023-03-05T07:23:19.348Z,3.90
2023-03-05T07:28:21.191Z,3.90
2023-03-05T07:33:22.990Z,4.00
2023-03-05T07:38:25.099Z,4.00
2023-03-05T07:43:39.234Z,4.00
2023-03-05T07:48:41.295Z,4.10
2023-03-05T07:53:44.350Z,4.10
2023-03-05T07:58:46.253Z,4.20
2023-03-05T08:03:48.224Z,4.20
2023-03-05T08:08:50.398Z,4.30
2023-03-05T08:13:52.754Z,4.40
2023-03-05T08:18:57.088Z,4.50
2023-03-05T08:23:59.492Z,4.60
2023-03-05T08:29:03.025Z,4.60
2023-03-05T08:34:08.605Z,4.70
2023-03-05T08:39:10.434Z,4.80
2023-03-05T08:44:12.663Z,4.90
2023-03-05T08:49:14.615Z,5.10
2023-03-05T08:54:16.540Z,5.10
2023-03-05T08:59:18.378Z,5.20
2023-03-05T09:04:20.557Z,5.30
2023-03-05T09:09:23.169Z,5.30
2023-03-05T09:14:25.194Z,5.40
2023-03-05T09:19:27.608Z,5.50
2023-03-05T09:24:29.609Z,5.50
2023-03-05T09:29:31.581Z,5.60
2023-03-05T09:34:36.755Z,5.70
2023-03-05T09:39:38.711Z,5.70
2023-03-05T09:45:02.240Z,5.80
2023-03-05T09:50:23.654Z,5.90
2023-03-05T09:55:29.491Z,6.00
2023-03-05T10:00:41.402Z,6.00
2023-03-05T10:05:52.076Z,6.00
2023-03-05T10:10:54.447Z,5.80
2023-03-05T10:16:06.896Z,5.60
2023-03-05T10:21:22.160Z,5.50
2023-03-05T10:26:51.383Z,5.50
2023-03-05T10:32:02.353Z,5.60
2023-03-05T10:37:41.751Z,5.60
2023-03-05T10:42:55.772Z,5.70
2023-03-05T10:48:35.252Z,5.90
2023-03-05T10:54:20.523Z,5.90
2023-03-05T10:59:22.351Z,6.10
2023-03-05T11:04:30.419Z,6.20
2023-03-05T11:09:32.827Z,6.30
2023-03-05T11:14:36.309Z,6.40
2023-03-05T11:19:39.623Z,6.40
2023-03-05T11:24:41.943Z,6.40
2023-03-05T11:29:48.660Z,6.40
2023-03-05T11:34:51.296Z,6.40
2023-03-05T11:40:19.831Z,6.40
2023-03-05T11:45:22.848Z,6.40
2023-03-05T11:50:28.246Z,6.50
2023-03-05T11:56:04.362Z,6.60
2023-03-05T12:01:24.027Z,6.60
2023-03-05T12:06:28.912Z,6.50
2023-03-05T12:11:32.251Z,6.40
2023-03-05T12:16:39.382Z,6.20
2023-03-05T12:21:45.735Z,6.10
2023-03-05T12:26:53.423Z,6.10
2023-03-05T12:31:55.364Z,6.10
2023-03-05T12:36:57.169Z,6.20
2023-03-05T12:41:59.124Z,6.50
2023-03-05T12:47:19.286Z,6.80
2023-03-05T12:52:29.886Z,7.20
2023-03-05T12:57:38.081Z,7.30
2023-03-05T13:02:43.502Z,7.50
2023-03-05T13:07:45.481Z,7.70
2023-03-05T13:12:56.060Z,7.70
2023-03-05T13:18:01.120Z,7.70
2023-03-05T13:23:18.496Z,7.70
2023-03-05T13:28:20.353Z,7.70
2023-03-05T13:33:34.285Z,7.70
2023-03-05T13:38:39.445Z,7.60
2023-03-05T13:43:50.426Z,7.50
2023-03-05T13:48:52.384Z,7.50
2023-03-05T13:53:54.405Z,7.40
2023-03-05T13:58:56.965Z,7.30
2023-03-05T14:04:13.915Z,7.30
2023-03-05T14:09:39.110Z,7.30
2023-03-05T14:14:43.794Z,7.30
2023-03-05T14:19:45.717Z,7.30
2023-03-05T14:24:56.676Z,7.40
2023-03-05T14:29:58.617Z,7.50
2023-03-05T14:35:04.331Z,7.40
2023-03-05T14:40:46.904Z,7.30
2023-03-05T14:45:48.778Z,7.20
2023-03-05T14:50:54.644Z,7.10
2023-03-05T14:55:57.841Z,7.00
2023-03-05T15:01:00.096Z,6.90
2023-03-05T15:06:02.145Z,6.90
2023-03-05T15:11:04.292Z,6.80
2023-03-05T15:16:07.196Z,6.70
2023-03-05T15:21:09.183Z,6.60
2023-03-05T15:26:14.074Z,6.60
2023-03-05T15:31:18.296Z,6.60
2023-03-05T15:36:20.174Z,6.50
2023-03-05T15:41:22.297Z,6.40
2023-03-05T15:46:24.188Z,6.40
2023-03-05T15:51:26.120Z,6.40
2023-03-05T15:56:28.049Z,6.30
2023-03-05T16:01:29.936Z,6.20
2023-03-05T16:06:32.485Z,6.10
2023-03-05T16:11:36.658Z,6.10
2023-03-05T16:16:38.640Z,6.00
2023-03-05T16:21:40.682Z,5.90
2023-03-05T16:26:42.761Z,5.90
2023-03-05T16:31:45.530Z,5.80
2023-03-05T16:36:50.842Z,5.70
2023-03-05T16:41:53.204Z,5.80
2023-03-05T16:46:56.573Z,5.70
2023-03-05T16:52:01.435Z,5.70
2023-03-05T16:57:09.187Z,5.60
2023-03-05T17:02:13.325Z,5.60
2023-03-05T17:07:15.276Z,5.60
2023-03-05T17:12:17.163Z,5.50
2023-03-05T17:17:19.054Z,5.50
2023-03-05T17:22:20.927Z,5.50
2023-03-05T17:27:23.313Z,5.50
2023-03-05T19:39:42.696Z,4.30
2023-03-05T19:44:03.630Z,4.30
2023-03-05T20:00:37.024Z,4.20
2023-03-05T20:18:16.574Z,4.20
2023-03-05T20:23:55.844Z,4.10
2023-03-05T20:30:14.316Z,4.10
2023-03-05T20:42:00.396Z,4.10
2023-03-05T20:53:05.790Z,4.00
2023-03-05T21:17:05.342Z,4.00
2023-03-05T21:22:53.693Z,3.90
2023-03-05T21:47:08.976Z,3.90
2023-03-05T21:53:05.154Z,3.80
2023-03-05T22:10:17.360Z,3.80
2023-03-05T22:27:39.490Z,3.70
2023-03-05T22:44:42.803Z,3.50
2023-03-05T22:49:57.859Z,3.50
2023-03-05T22:55:21.166Z,3.50
2023-03-05T23:00:42.673Z,3.50
2023-03-05T23:12:47.585Z,3.40
2023-03-05T23:23:44.921Z,3.50
2023-03-05T23:29:18.002Z,3.40
2023-03-05T23:34:52.848Z,3.40
